Flight Track Log - Related Links

Times and Time Zones

All times are in EDT time to prevent confusion due to time zone crossing. See the ASQ5207 flight status page for this flight to view local times or setup timezone preferences in your user account.

Time Position Orientation Groundspeed Altitude Reporting Facility
EDT Latitude Longitude Course Direction KTS MPH feet Rate Location/Type
Tue 06:12:07 PM 29.9572 -95.3417 216° Southwest 158 182 1,000  Level Houston Center
Tue 06:12:44 PM 29.9339 -95.3614 216° Southwest 226 260 1,800 1,871 Climbing Houston Center
Tue 06:13:40 PM 29.9831 -95.3942 330° Northwest 296 341 3,900 2,855 Climbing Houston Center
Tue 06:14:48 PM 30.0589 -95.3511 26° Northeast 270 311 7,700 3,148 Climbing Houston Center
Tue 06:15:42 PM 30.1172 -95.2981 38° Northeast 289 333 10,300 2,297 Climbing Houston Center
Tue 06:16:56 PM 30.1981 -95.2225 39° Northeast 310 357 12,600 1,809 Climbing Houston Center
Tue 06:17:58 PM 30.2714 -95.1539 39° Northeast 336 387 14,400 1,742 Climbing Houston Center
Tue 06:19:00 PM 30.3478 -95.0833 39° Northeast 350 403 16,200 1,597 Climbing Houston Center
Tue 06:20:02 PM 30.4367 -95.0008 39° Northeast 362 417 17,700 1,500 Climbing Houston Center
Tue 06:21:04 PM 30.5175 -94.9253 39° Northeast 372 428 19,300 1,500 Climbing Houston Center
Tue 06:22:06 PM 30.6025 -94.8525 36° Northeast 379 436 20,800 1,392 Climbing Houston Center
Tue 06:23:09 PM 30.6914 -94.7847 33° Northeast 382 440 22,200 1,200 Climbing Houston Center
Tue 06:24:11 PM 30.7806 -94.7158 34° Northeast 384 442 23,300 1,065 Climbing Houston Center
Tue 06:25:13 PM 30.8725 -94.6442 34° Northeast 395 455 24,400 1,146 Climbing Houston Center
Tue 06:25:40 PM 30.9294 -94.6019 32° Northeast 397 457 25,000 1,103 Climbing Fort Worth Center
Tue 06:26:40 PM 31.0239 -94.5264 34° Northeast 404 465 26,000 950 Climbing Fort Worth Center
Tue 06:27:40 PM 31.1203 -94.4531 33° Northeast 404 465 26,900 950 Climbing Fort Worth Center
Tue 06:28:40 PM 31.2164 -94.3772 34° Northeast 409 471 27,900 1,000 Climbing Fort Worth Center
Tue 06:29:40 PM 31.3128 -94.3036 33° Northeast 414 476 28,900 550 Climbing Fort Worth Center
Tue 06:30:40 PM 31.4111 -94.2272 34° Northeast 416 479 29,000 50 Climbing Fort Worth Center
Tue 06:31:40 PM 31.5033 -94.1558 33° Northeast 429 494 29,000  Level Fort Worth Center
Tue 06:32:39 PM 31.6036 -94.0767 34° Northeast 434 499 29,000  Level Fort Worth Center
Tue 06:33:40 PM 31.7017 -94.0022 33° Northeast 429 494 29,000  Level Fort Worth Center
Tue 06:34:40 PM 31.8058 -93.9203 34° Northeast 434 499 29,000  Level Fort Worth Center
Tue 06:35:40 PM 31.9039 -93.8406 35° Northeast 434 499 29,000  Level Fort Worth Center
Tue 06:36:40 PM 32.0058 -93.7583 34° Northeast 434 499 29,000  Level Fort Worth Center
Tue 06:37:40 PM 32.1039 -93.6808 34° Northeast 434 499 29,000  Level Fort Worth Center
Tue 06:38:40 PM 32.2136 -93.5856 36° Northeast 434 499 29,000  Level Fort Worth Center
Tue 06:39:40 PM 32.3136 -93.5075 33° Northeast 433 498 29,000  Level Fort Worth Center
Tue 06:40:40 PM 32.4133 -93.4269 34° Northeast 433 498 29,000  Level Fort Worth Center
Tue 06:41:40 PM 32.5131 -93.3461 34° Northeast 433 498 29,000  Level Fort Worth Center
Tue 06:42:40 PM 32.6106 -93.2678 34° Northeast 433 498 29,000  Level Fort Worth Center
Tue 06:43:40 PM 32.7122 -93.1842 35° Northeast 433 498 29,000  Level Fort Worth Center
Tue 06:44:40 PM 32.8119 -93.1053 34° Northeast 439 505 29,000  Level Fort Worth Center
Tue 06:46:56 PM 33.0233 -92.9367 34° Northeast 427 491 29,000  Level Memphis Center
Tue 06:47:56 PM 33.1208 -92.8550 35° Northeast 427 491 29,000  Level Memphis Center
Tue 06:48:56 PM 33.2186 -92.7758 34° Northeast 427 491 29,000  Level Memphis Center
Tue 06:49:56 PM 33.3019 -92.6711 46° Northeast 427 491 29,000  Level Memphis Center
Tue 06:50:56 PM 33.3708 -92.5511 55° Northeast 432 497 29,000  Level Memphis Center
Tue 06:51:56 PM 33.4419 -92.4286 55° Northeast 437 503 29,000  Level Memphis Center
Tue 06:52:56 PM 33.5106 -92.3081 56° Northeast 437 503 29,000  Level Memphis Center
Tue 06:53:56 PM 33.5814 -92.1850 55° Northeast 437 503 29,000  Level Memphis Center
Tue 06:54:56 PM 33.6539 -92.0667 54° Northeast 437 503 29,000 -50 Level Memphis Center
Tue 06:55:56 PM 33.7203 -91.9431 57° Northeast 442 509 28,900 -350 Descending Memphis Center
Tue 06:56:56 PM 33.7947 -91.8194 54° Northeast 442 509 28,300 -650 Descending Memphis Center
Tue 06:57:56 PM 33.8631 -91.6906 57° Northeast 448 516 27,600 -650 Descending Memphis Center
Tue 06:58:56 PM 33.9331 -91.5664 56° Northeast 448 516 27,000 -600 Descending Memphis Center
Tue 06:59:56 PM 34.0178 -91.4497 49° Northeast 448 516 26,400 -600 Descending Memphis Center
Tue 07:00:56 PM 34.0981 -91.3381 49° Northeast 443 510 25,800 -1,250 Descending Memphis Center
Tue 07:01:56 PM 34.1822 -91.2233 48° Northeast 448 516 23,900 -900 Descending Memphis Center
Tue 07:02:56 PM 34.2664 -91.1061 49° Northeast 453 521 24,000 -2,550 Climbing Memphis Center
Tue 07:03:56 PM 34.3506 -90.9886 49° Northeast 443 510 18,800 -3,850 Descending Memphis Center
Tue 07:04:56 PM 34.4261 -90.8833 49° Northeast 424 488 16,300 -2,600 Descending Memphis Center
Tue 07:05:56 PM 34.4997 -90.7806 49° Northeast 411 473 13,600 -2,450 Descending Memphis Center
Tue 07:06:56 PM 34.5647 -90.6875 50° Northeast 384 442 11,400 -1,750 Descending Memphis Center
Tue 07:07:56 PM 34.6169 -90.6019 53° Northeast 341 392 10,100 -750 Descending Memphis Center
Tue 07:08:56 PM 34.6442 -90.5161 69° East 282 325 9,900 -650 Descending Memphis Center
Tue 07:09:56 PM 34.6672 -90.4328 71° East 260 299 8,800 -1,150 Descending Memphis Center
Tue 07:10:56 PM 34.6903 -90.3547 70° East 248 285 7,600 -1,200 Descending Memphis Center
Tue 07:11:56 PM 34.7153 -90.2814 67° East 242 278 6,400 -1,100 Descending Memphis Center
Tue 07:12:56 PM 34.7403 -90.2131 66° East 242 278 5,400 -850 Descending Memphis Center
Tue 07:13:56 PM 34.7650 -90.1397 68° East 242 278 4,700 -700 Descending Memphis Center
Tue 07:14:56 PM 34.7922 -90.0611 67° East 237 273 4,000 -450 Descending Memphis Center
Tue 07:15:56 PM 34.8461 -90.0156 35° Northeast 222 255 3,800 -595 Descending Memphis Center
Tue 07:16:47 PM 34.8833 -89.9833 35° Northeast 196 226 2,900 -990 Descending KMEM
Tue 07:17:33 PM 34.9333 -89.9833 360° North 174 200 2,200 -906 Descending KMEM
Tue 07:18:33 PM 34.9667 -89.9833 360° North 158 182 1,300 -744 Descending KMEM
Tue 07:19:34 PM 35.0167 -89.9833 360° North 133 153 700 -590 Descending KMEM
Tue 07:21:00 PM 35.0424 -89.9767 North  Level Estimated
Tue 07:28:00 PM 35.0424 -89.9767 151° Southeast  Level Estimated
Tue 07:29:00 PM 35.0424 -89.9767 151° Southeast  Level Estimated
Tue 07:30:00 PM 35.0424 -89.9767 151° Southeast  Level Estimated
Tue 07:31:00 PM 35.0424 -89.9767 151° Southeast  Level Estimated
Tue 07:32:00 PM 35.0424 -89.9767 151° Southeast  Level Estimated
Tue 07:33:00 PM 35.0424 -89.9767 151° Southeast  Level Estimated
Tue 07:34:00 PM 35.0424 -89.9767 151° Southeast  Level Estimated
Tue 07:35:00 PM 35.0424 -89.9767 151° Southeast  Level Estimated
Tue 07:36:00 PM 35.0424 -89.9767 151° Southeast  Level Estimated
Tue 07:37:00 PM 35.0424 -89.9767 151° Southeast  Level Estimated
Tue 07:38:00 PM 35.0424 -89.9767 151° Southeast  Level Estimated
Tue 07:39:00 PM 35.0424 -89.9767 151° Southeast  Level Estimated
Tue 07:40:00 PM 35.0424 -89.9767 151° Southeast  Level Estimated
Tue 07:41:00 PM 35.0424 -89.9767 151° Southeast  Level Estimated

Login

Don't have an account? Register now (free) for customized features, flight alerts, and more!